Anchialos, Greece

2:50 PM EEST on August 01, 2014 (GMT +0300)
Almiros Air Base (LGBL) Elev 82 ft | 39.22 °N, 22.79 °E | Change Station
Active Advisory: Thunderstorms

Current weather conditions updated 30 minutes ago

Partly Cloudy
Partly Cloudy
93 °F
Feels Like 93 °F
N
12
Wind Variable Wind from WNW

Today is forecast to be nearly the same temperature as yesterday. Thunderstorms likely early tonight.

Today
High -- | Low -- °F
--% Chance of Precip.
Yesterday
High -- | Low -- °F
Precip. -- in
6:28 AM 8:40 PM
Waxing Crescent, 26% visible
Pressure 29.62 in
Visibility 6.2 miles
Clouds Few 3500 ft
Dew Point 50 °F
Humidity 23%
Rainfall 0.00 in
Snow Depth Not available.
UV 10 out of 12
Pollen Not available.
Air Quality Not available.
Flu Activity Not available.
METAR LGBL 011120Z 29010KT 9999 FEW035 34/10 Q1003 NOSIG

More Conditions Fewer Conditions

Pressure 29.62 in
Visibility 6.2 miles
Clouds Few 3500 ft
Dew Point 50 °F
Humidity 23%
Rainfall 0.00 in
Snow Depth Not available.
UV 10 out of 12
Pollen Not available.
Air Quality Not available.
Flu Activity Not available.
METAR LGBL 011120Z 29010KT 9999 FEW035 34/10 Q1003 NOSIG

More Conditions Fewer Conditions

10-Day Weather Forecast

Almanac

Astronomy

Aug. 01, 2014 Rise Set
Actual Time 6:28 AM EEST 8:40 PM EEST
Civil Twilight 5:58 AM EEST 9:10 PM EEST
Nautical Twilight 5:22 AM EEST 9:47 PM EEST
Astronomical Twilight 4:41 AM EEST 10:27 PM EEST
Moon 11:32 AM EEST 11:17 PM EEST
Length of Visible Light 15h 11m
Length of Day
14h 12m
Tomorrow will be 1m 56s shorter.
Waxing Crescent, 26% of the Moon is Illuminated
Today
Waxing Crescent
Aug 3
First Quarter
Aug 10
Full
Aug 17
Last Quarter
Aug 25
New

Yesterday's Extremes

Country Highs Country Lows

Community

WunderPhotos

Upload Photos

1,739,538 photos uploaded!

Nearby

Snow Depth

Not available.

Earthquake Activity

City Distance Mag. Time & Date
No recent earthquake activity has been reported nearby.
Minimum magnitude displayed is 2.5.

Coastal Water Temperatures

Place Temperature
No Stations Reporting

Nearby Weather Stations

Station Location Temp. Heat Index Dew Point Humidity Wind Precip. Elev Updated Type
Center, Volos 89.1 °F 90 °F 64 °F 43% East  at  1.0 mph 0.00 in / hr 52 ft 2:46 PM EEST Normal
Volos, Greece, Volos 89.4 °F 90 °F 62 °F 40% SSW  at  4.0 mph 0.00 in / hr 85 ft 2:49 PM EEST Normal
PTELEOS, Pteleos 90.6 °F 90 °F 60 °F 36% SW  at  0.0 mph 0.00 in / hr 410 ft 1:05 PM EEST Rapid Fire
East Fthiotida - Raches, Ράχες 90.1 °F 88 °F 54 °F 29% SSE  at  8.7 mph 0.00 in / hr 344 ft 2:50 PM EEST Rapid Fire

Show More Stations Show Fewer Stations